createdAt,value
2023-03-25T00:00:45.246Z,5.50
2023-03-25T00:03:11.712Z,2.85
2023-03-25T00:05:38.106Z,4.07
2023-03-25T00:08:04.542Z,3.83
2023-03-25T00:10:30.934Z,4.15
2023-03-25T00:12:57.349Z,4.18
2023-03-25T00:15:23.817Z,6.30
2023-03-25T00:17:50.247Z,4.20
2023-03-25T00:20:16.728Z,3.47
2023-03-25T00:22:43.153Z,7.07
2023-03-25T00:25:09.580Z,2.90
2023-03-25T00:27:35.964Z,4.57
2023-03-25T00:30:02.421Z,4.88
2023-03-25T00:32:28.895Z,5.90
2023-03-25T00:34:55.311Z,3.65
2023-03-25T00:37:21.835Z,4.00
2023-03-25T00:39:48.382Z,7.22
2023-03-25T00:42:14.793Z,2.88
2023-03-25T00:44:41.174Z,5.22
2023-03-25T00:47:07.637Z,7.03
2023-03-25T00:49:34.111Z,6.97
2023-03-25T00:52:00.515Z,4.38
2023-03-25T00:54:26.902Z,3.28
2023-03-25T00:56:53.371Z,3.38
2023-03-25T00:59:19.978Z,4.05
2023-03-25T01:01:46.415Z,6.03
2023-03-25T01:04:12.909Z,3.22
2023-03-25T01:06:39.370Z,5.35
2023-03-25T01:09:05.811Z,4.03
2023-03-25T01:11:32.261Z,4.32
2023-03-25T01:13:58.725Z,3.97
2023-03-25T01:16:25.160Z,3.28
2023-03-25T01:18:51.556Z,3.60
2023-03-25T01:21:18.071Z,3.58
2023-03-25T01:23:44.453Z,3.75
2023-03-25T01:26:10.905Z,5.32
2023-03-25T01:28:37.344Z,3.92
2023-03-25T01:31:03.781Z,4.38
2023-03-25T01:33:30.206Z,2.97
2023-03-25T01:35:56.648Z,4.25
2023-03-25T01:38:23.150Z,3.50
2023-03-25T01:40:49.618Z,5.95
2023-03-25T01:43:16.064Z,4.07
2023-03-25T01:45:42.534Z,4.35
2023-03-25T01:48:08.995Z,3.28
2023-03-25T01:50:35.420Z,6.63
2023-03-25T01:53:01.842Z,6.28
2023-03-25T01:55:28.237Z,7.03
2023-03-25T01:57:54.608Z,6.35
2023-03-25T02:00:21.109Z,6.45
2023-03-25T02:02:47.592Z,6.18
2023-03-25T02:05:14.048Z,6.68
2023-03-25T02:07:40.469Z,6.55
2023-03-25T02:10:06.943Z,6.35
2023-03-25T02:12:33.432Z,4.22
2023-03-25T02:14:59.823Z,5.35
2023-03-25T02:17:26.268Z,10.35
2023-03-25T02:19:52.779Z,5.10
2023-03-25T02:22:19.206Z,5.28
2023-03-25T02:24:45.620Z,5.75
2023-03-25T02:27:12.001Z,7.55
2023-03-25T02:29:38.387Z,4.70
2023-03-25T02:32:05.189Z,5.60
2023-03-25T02:34:31.659Z,5.47
2023-03-25T02:36:58.134Z,8.05
2023-03-25T02:39:24.564Z,6.07
2023-03-25T02:41:51.011Z,4.68
2023-03-25T02:44:17.422Z,6.72
2023-03-25T02:46:43.856Z,4.55
2023-03-25T02:49:10.289Z,7.35
2023-03-25T02:51:36.674Z,7.03
2023-03-25T02:54:03.084Z,6.07
2023-03-25T02:56:29.577Z,8.43
2023-03-25T02:58:56.099Z,3.67
2023-03-25T03:01:22.636Z,7.35
2023-03-25T03:03:49.220Z,6.50
2023-03-25T03:06:15.611Z,7.55
2023-03-25T03:08:42.010Z,7.28
2023-03-25T03:11:08.454Z,5.38
2023-03-25T03:13:34.911Z,7.13
2023-03-25T03:16:01.312Z,7.55
2023-03-25T03:18:27.861Z,6.15
2023-03-25T03:20:54.311Z,3.70
2023-03-25T03:23:20.707Z,3.33
2023-03-25T03:25:48.611Z,4.13
2023-03-25T03:28:15.090Z,4.90
2023-03-25T03:30:41.546Z,5.35
2023-03-25T03:33:08.069Z,7.13
2023-03-25T03:35:34.534Z,6.82
2023-03-25T03:38:00.967Z,5.47
2023-03-25T03:40:27.357Z,7.40
2023-03-25T03:42:53.808Z,4.63
2023-03-25T03:45:20.227Z,7.38
2023-03-25T03:47:46.614Z,5.60
2023-03-25T03:50:13.025Z,5.47
2023-03-25T03:52:39.460Z,7.68
2023-03-25T03:55:05.896Z,7.63
2023-03-25T03:57:32.338Z,5.32
2023-03-25T03:59:58.779Z,3.47
2023-03-25T04:02:25.264Z,5.65
2023-03-25T04:04:51.790Z,8.05
2023-03-25T04:07:18.352Z,5.03
2023-03-25T04:09:44.761Z,3.47
2023-03-25T04:12:11.162Z,2.50
2023-03-25T04:14:37.566Z,3.63
2023-03-25T04:17:04.013Z,4.20
2023-03-25T04:19:30.462Z,3.47
2023-03-25T04:21:56.926Z,2.78
2023-03-25T04:24:23.377Z,3.78
2023-03-25T04:26:50.044Z,3.88
2023-03-25T04:29:16.492Z,5.63
2023-03-25T04:31:42.927Z,5.63
2023-03-25T04:34:09.362Z,4.55
2023-03-25T04:36:35.822Z,8.73
2023-03-25T04:39:02.323Z,3.97
2023-03-25T04:41:28.882Z,4.72
2023-03-25T04:43:55.446Z,5.10
2023-03-25T04:46:21.917Z,5.38
2023-03-25T04:48:48.344Z,6.05
2023-03-25T04:51:14.893Z,6.30
2023-03-25T04:53:41.308Z,6.35
2023-03-25T04:56:07.704Z,6.30
2023-03-25T04:58:34.131Z,5.45
2023-03-25T05:01:00.551Z,6.65
2023-03-25T05:03:26.957Z,5.85
2023-03-25T05:05:53.357Z,7.80
2023-03-25T05:08:19.819Z,6.70
2023-03-25T05:10:46.191Z,6.15
2023-03-25T05:13:12.621Z,5.55
2023-03-25T05:15:39.051Z,3.90
2023-03-25T05:18:05.478Z,4.55
2023-03-25T05:20:31.940Z,5.03
2023-03-25T05:22:58.393Z,8.70
2023-03-25T05:25:24.801Z,8.80
2023-03-25T05:27:51.229Z,8.38
2023-03-25T05:30:17.617Z,4.78
2023-03-25T05:32:44.037Z,5.05
2023-03-25T05:35:10.499Z,4.32
2023-03-25T05:37:36.935Z,5.22
2023-03-25T05:40:03.318Z,9.13
2023-03-25T05:42:41.972Z,6.97
2023-03-25T05:45:08.371Z,6.20
2023-03-25T05:47:34.789Z,8.88
2023-03-25T05:50:01.197Z,5.03
2023-03-25T05:52:27.615Z,6.82
2023-03-25T05:54:54.055Z,5.07
2023-03-25T05:57:20.527Z,8.10
2023-03-25T05:59:46.913Z,6.85
2023-03-25T06:02:13.399Z,5.57
2023-03-25T06:04:39.921Z,7.03
2023-03-25T06:07:06.354Z,8.57
2023-03-25T06:09:32.777Z,5.10
2023-03-25T06:11:59.221Z,10.32
2023-03-25T06:14:25.695Z,5.43
2023-03-25T06:16:52.141Z,4.78
2023-03-25T06:19:18.612Z,4.30
2023-03-25T06:21:45.048Z,7.85
2023-03-25T06:24:11.455Z,5.35
2023-03-25T06:26:37.874Z,4.80
2023-03-25T06:29:04.308Z,5.45
2023-03-25T06:31:30.739Z,4.78
2023-03-25T06:33:57.161Z,7.00
2023-03-25T06:36:23.572Z,4.78
2023-03-25T06:38:49.948Z,1.77
2023-03-25T06:41:16.330Z,3.53
2023-03-25T06:43:42.716Z,5.00
2023-03-25T06:46:09.382Z,2.80
2023-03-25T06:48:35.871Z,4.28
2023-03-25T06:51:02.242Z,2.25
2023-03-25T06:53:28.783Z,3.50
2023-03-25T06:55:55.249Z,3.45
2023-03-25T06:58:21.719Z,5.63
2023-03-25T07:00:48.315Z,3.33
2023-03-25T07:03:14.742Z,3.92
2023-03-25T07:05:41.265Z,5.05
2023-03-25T07:08:07.775Z,5.20
2023-03-25T07:10:34.234Z,6.85
2023-03-25T07:13:00.675Z,4.15
2023-03-25T07:15:27.127Z,3.42
2023-03-25T07:17:53.594Z,5.63
2023-03-25T07:20:20.049Z,5.32
2023-03-25T07:22:46.517Z,9.15
2023-03-25T07:25:13.022Z,9.65
2023-03-25T07:27:39.513Z,3.35
2023-03-25T07:30:06.021Z,6.20
2023-03-25T07:32:32.568Z,7.45
2023-03-25T07:34:59.051Z,6.43
2023-03-25T07:37:25.504Z,9.02
2023-03-25T07:39:51.957Z,10.05
2023-03-25T07:42:18.417Z,9.73
2023-03-25T07:44:44.864Z,10.80
2023-03-25T07:47:11.365Z,8.52
2023-03-25T07:49:37.871Z,15.48
2023-03-25T07:52:04.402Z,8.35
2023-03-25T07:54:30.875Z,7.63
2023-03-25T07:56:57.371Z,7.47
2023-03-25T07:59:23.912Z,7.40
2023-03-25T08:01:50.457Z,11.20
2023-03-25T08:04:16.963Z,9.05
2023-03-25T08:06:43.426Z,9.48
2023-03-25T08:09:09.907Z,7.28
2023-03-25T08:11:36.391Z,14.02
2023-03-25T08:14:02.896Z,5.93
2023-03-25T08:16:29.396Z,8.02
2023-03-25T08:18:55.874Z,8.02
2023-03-25T08:21:22.373Z,11.45
2023-03-25T08:23:48.864Z,7.75
2023-03-25T08:26:15.350Z,6.53
2023-03-25T08:28:41.823Z,12.63
2023-03-25T08:31:08.270Z,5.20
2023-03-25T08:33:34.823Z,7.07
2023-03-25T08:36:01.326Z,11.45
2023-03-25T08:38:27.876Z,6.68
2023-03-25T08:40:54.376Z,10.00
2023-03-25T08:43:20.839Z,9.68
2023-03-25T08:45:47.559Z,11.40
2023-03-25T08:48:14.031Z,7.90
2023-03-25T08:50:40.504Z,7.45
2023-03-25T08:53:06.970Z,8.07
2023-03-25T08:55:33.461Z,12.40
2023-03-25T08:57:59.928Z,10.38
2023-03-25T09:00:26.376Z,9.32
2023-03-25T09:02:52.872Z,10.65
2023-03-25T09:05:19.469Z,7.28
2023-03-25T09:07:45.967Z,9.65
2023-03-25T09:10:12.476Z,5.82
2023-03-25T09:12:38.968Z,9.02
2023-03-25T09:15:05.452Z,9.52
2023-03-25T09:17:31.928Z,11.35
2023-03-25T09:19:58.969Z,11.40
2023-03-25T09:22:25.503Z,10.73
2023-03-25T09:24:51.989Z,10.98
2023-03-25T09:27:18.451Z,8.18
2023-03-25T09:29:44.950Z,11.75
2023-03-25T09:32:11.430Z,6.80
2023-03-25T09:34:37.942Z,11.70
2023-03-25T09:37:04.457Z,10.73
2023-03-25T09:39:30.904Z,12.35
2023-03-25T09:41:57.348Z,10.68
2023-03-25T09:44:23.753Z,10.32
2023-03-25T09:46:50.241Z,12.15
2023-03-25T09:49:16.632Z,8.63
2023-03-25T09:51:43.012Z,6.38
2023-03-25T09:54:09.445Z,7.45
2023-03-25T09:56:37.429Z,7.32
2023-03-25T09:59:08.905Z,9.65
2023-03-25T10:01:35.449Z,6.78
2023-03-25T10:04:01.936Z,14.63
2023-03-25T10:06:28.342Z,10.32
2023-03-25T10:08:54.724Z,13.25
2023-03-25T10:11:21.148Z,5.68
2023-03-25T10:13:48.646Z,7.90
2023-03-25T10:16:15.340Z,7.43
2023-03-25T10:18:41.750Z,7.32
2023-03-25T10:21:08.210Z,7.80
2023-03-25T10:23:34.629Z,7.53
2023-03-25T10:26:01.040Z,4.72
2023-03-25T10:28:27.455Z,7.53
2023-03-25T10:30:53.907Z,8.20
2023-03-25T10:33:20.287Z,7.07
2023-03-25T10:35:46.829Z,4.95
2023-03-25T10:38:14.468Z,6.05
2023-03-25T10:40:41.205Z,6.85
2023-03-25T10:43:07.633Z,6.70
2023-03-25T10:45:34.099Z,6.78
2023-03-25T10:48:00.592Z,9.55
2023-03-25T10:50:27.026Z,7.15
2023-03-25T10:52:53.399Z,9.10
2023-03-25T10:55:19.848Z,9.63
2023-03-25T10:57:46.276Z,6.50
2023-03-25T11:00:12.794Z,7.18
2023-03-25T11:02:39.411Z,6.85
2023-03-25T11:05:05.951Z,6.93
2023-03-25T11:07:32.369Z,6.25
2023-03-25T11:09:58.860Z,7.18
2023-03-25T11:12:36.692Z,7.78
2023-03-25T11:15:09.133Z,8.43
2023-03-25T11:17:35.620Z,12.50
2023-03-25T11:20:02.077Z,9.27
2023-03-25T11:22:28.528Z,7.97
2023-03-25T11:24:54.907Z,6.57
2023-03-25T11:27:21.349Z,11.02
2023-03-25T11:29:47.826Z,9.43
2023-03-25T11:32:14.297Z,9.40
2023-03-25T11:34:40.780Z,9.05
2023-03-25T11:37:07.280Z,12.95
2023-03-25T11:39:33.719Z,8.95
2023-03-25T11:42:00.173Z,15.02
2023-03-25T11:44:26.576Z,7.05
2023-03-25T11:46:53.018Z,12.10
2023-03-25T11:49:19.445Z,8.30
2023-03-25T11:51:45.828Z,10.63
2023-03-25T11:54:12.294Z,8.82
2023-03-25T11:56:38.754Z,11.38
2023-03-25T11:59:05.195Z,13.65
2023-03-25T12:01:31.656Z,12.98
2023-03-25T12:03:58.123Z,10.10
2023-03-25T12:06:24.686Z,9.50
2023-03-25T12:08:51.128Z,16.42
2023-03-25T12:11:17.538Z,14.73
2023-03-25T12:13:43.949Z,12.45
2023-03-25T12:16:10.486Z,13.20
2023-03-25T12:18:37.024Z,11.23
2023-03-25T12:21:03.478Z,10.90
2023-03-25T12:23:29.923Z,10.57
2023-03-25T12:25:56.486Z,10.65
2023-03-25T12:28:22.870Z,10.40
2023-03-25T12:30:49.485Z,8.30
2023-03-25T12:33:16.052Z,9.85
2023-03-25T12:35:42.521Z,10.57
2023-03-25T12:38:08.998Z,12.73
2023-03-25T12:40:35.382Z,10.80
2023-03-25T12:43:01.751Z,14.95
2023-03-25T12:45:28.235Z,13.07
2023-03-25T12:47:54.792Z,8.02
2023-03-25T12:50:22.679Z,12.55
2023-03-25T12:52:49.436Z,9.93
2023-03-25T12:55:15.872Z,10.20
2023-03-25T12:57:42.652Z,15.45
2023-03-25T13:00:09.045Z,7.55
2023-03-25T13:02:35.558Z,10.13
2023-03-25T13:05:02.043Z,9.40
2023-03-25T13:07:28.457Z,8.13
2023-03-25T13:09:54.882Z,7.75
2023-03-25T13:12:21.276Z,9.68
2023-03-25T13:14:47.664Z,6.82
2023-03-25T13:17:14.074Z,8.95
2023-03-25T13:19:40.484Z,9.82
2023-03-25T13:22:06.907Z,13.35
2023-03-25T13:24:33.291Z,8.30
2023-03-25T13:26:59.675Z,9.13
2023-03-25T13:29:26.123Z,7.95
2023-03-25T13:31:52.573Z,9.80
2023-03-25T13:34:19.039Z,6.75
2023-03-25T13:36:45.477Z,7.72
2023-03-25T13:39:11.908Z,9.13
2023-03-25T13:41:38.304Z,9.55
2023-03-25T13:44:04.787Z,7.35
2023-03-25T13:46:31.272Z,8.13
2023-03-25T13:48:57.755Z,11.25
2023-03-25T13:51:24.193Z,8.70
2023-03-25T13:53:50.635Z,5.57
2023-03-25T13:56:17.073Z,7.95
2023-03-25T13:58:44.212Z,8.70
2023-03-25T14:01:11.070Z,6.00
2023-03-25T14:03:37.701Z,8.90
2023-03-25T14:06:04.126Z,7.55
2023-03-25T14:08:30.497Z,9.75
2023-03-25T14:10:56.930Z,9.23
2023-03-25T14:13:23.372Z,5.93
2023-03-25T14:15:50.128Z,11.07
2023-03-25T14:18:16.799Z,8.57
2023-03-25T14:20:43.234Z,10.45
2023-03-25T14:23:09.702Z,8.65
2023-03-25T14:25:36.113Z,10.13
2023-03-25T14:28:02.488Z,7.13
2023-03-25T14:30:28.943Z,6.07
2023-03-25T14:32:55.363Z,8.65
2023-03-25T14:35:21.782Z,7.55
2023-03-25T14:37:48.251Z,7.05
2023-03-25T14:40:14.689Z,6.88
2023-03-25T14:42:41.104Z,9.63
2023-03-25T14:45:07.565Z,5.90
2023-03-25T14:47:33.999Z,8.68
2023-03-25T14:50:00.483Z,9.10
2023-03-25T14:52:26.932Z,7.07
2023-03-25T14:54:53.362Z,9.63
2023-03-25T14:57:19.804Z,6.35
2023-03-25T14:59:46.200Z,8.80
2023-03-25T15:02:12.640Z,9.00
2023-03-25T15:04:39.111Z,10.40
2023-03-25T15:07:05.510Z,6.18
2023-03-25T15:09:31.977Z,4.95
2023-03-25T15:11:59.911Z,4.88
2023-03-25T15:14:26.482Z,4.13
2023-03-25T15:16:52.944Z,1.95
2023-03-25T15:19:19.341Z,6.63
2023-03-25T15:21:45.756Z,4.95
2023-03-25T15:24:12.167Z,2.97
2023-03-25T15:26:38.613Z,4.20
2023-03-25T15:29:05.031Z,4.88
2023-03-25T15:31:31.513Z,5.53
2023-03-25T15:33:57.968Z,4.30
2023-03-25T15:36:24.394Z,5.35
2023-03-25T15:38:50.856Z,6.25
2023-03-25T15:41:17.349Z,7.85
2023-03-25T15:43:53.634Z,4.68
2023-03-25T15:46:26.386Z,5.88
2023-03-25T15:48:52.826Z,6.68
2023-03-25T15:51:19.331Z,7.43
2023-03-25T15:53:45.708Z,8.68
2023-03-25T15:56:12.148Z,5.55
2023-03-25T15:58:39.848Z,3.85
2023-03-25T16:01:06.365Z,3.28
2023-03-25T16:03:32.851Z,2.58
2023-03-25T16:05:59.294Z,5.68
2023-03-25T16:08:25.717Z,4.63
2023-03-25T16:10:52.320Z,2.50
2023-03-25T16:13:18.969Z,2.50
2023-03-25T16:15:45.422Z,2.40
2023-03-25T16:18:11.847Z,0.73
2023-03-25T16:20:38.294Z,1.42
2023-03-25T16:23:04.677Z,1.63
2023-03-25T16:25:31.122Z,2.60
2023-03-25T16:27:57.559Z,1.42
2023-03-25T16:30:23.941Z,1.40
2023-03-25T16:32:50.411Z,1.45
2023-03-25T16:35:16.815Z,0.90
2023-03-25T16:37:43.189Z,0.65
2023-03-25T16:40:09.577Z,2.30
2023-03-25T16:42:36.053Z,1.90
2023-03-25T16:45:02.517Z,1.77
2023-03-25T16:47:28.997Z,2.53
2023-03-25T16:49:55.404Z,0.70
2023-03-25T16:52:21.876Z,2.22
2023-03-25T16:54:48.301Z,2.10
2023-03-25T16:57:14.774Z,2.22
2023-03-25T16:59:41.187Z,1.10
2023-03-25T17:02:07.621Z,1.95
2023-03-25T17:04:34.014Z,2.25
2023-03-25T17:07:00.394Z,1.92
2023-03-25T17:09:26.803Z,0.98
2023-03-25T17:11:53.204Z,0.90
2023-03-25T17:14:19.790Z,0.88
2023-03-25T17:16:46.245Z,3.05
2023-03-25T17:19:12.689Z,1.10
2023-03-25T17:21:39.148Z,0.82
2023-03-25T17:24:05.612Z,3.75
2023-03-25T17:26:32.078Z,1.75
2023-03-25T17:28:58.684Z,1.55
2023-03-25T17:31:25.234Z,1.00
2023-03-25T17:33:51.692Z,2.58
2023-03-25T17:36:18.146Z,1.75
2023-03-25T17:38:44.516Z,4.78
2023-03-25T17:41:10.906Z,2.05
2023-03-25T17:43:37.323Z,2.38
2023-03-25T17:46:03.709Z,0.95
2023-03-25T17:48:30.098Z,1.13
2023-03-25T17:50:56.536Z,1.52
2023-03-25T17:53:22.937Z,1.40
2023-03-25T17:55:49.558Z,2.20
2023-03-25T17:58:16.017Z,2.25
2023-03-25T18:00:42.462Z,1.83
2023-03-25T18:03:08.947Z,1.27
2023-03-25T18:05:35.460Z,2.33
2023-03-25T18:08:01.935Z,1.90
2023-03-25T18:10:30.101Z,2.20
2023-03-25T18:12:57.517Z,2.13
2023-03-25T18:15:23.956Z,3.28
2023-03-25T18:17:50.459Z,2.95
2023-03-25T18:20:16.935Z,3.13
2023-03-25T18:22:43.361Z,3.60
2023-03-25T18:25:09.821Z,1.20
2023-03-25T18:27:43.262Z,1.27
2023-03-25T18:30:10.398Z,2.63
2023-03-25T18:32:36.842Z,3.35
2023-03-25T18:35:03.330Z,3.35
2023-03-25T18:37:29.797Z,3.25
2023-03-25T18:39:56.474Z,4.07
2023-03-25T18:42:22.906Z,5.22
2023-03-25T18:44:51.352Z,4.05
2023-03-25T18:47:19.002Z,2.72
2023-03-25T18:49:45.474Z,2.80
2023-03-25T18:52:11.905Z,1.55
2023-03-25T18:54:38.408Z,1.52
2023-03-25T18:57:04.830Z,3.20
2023-03-25T18:59:31.298Z,3.40
2023-03-25T19:01:57.771Z,1.42
2023-03-25T19:04:24.220Z,4.93
2023-03-25T19:06:50.677Z,3.60
2023-03-25T19:09:17.086Z,3.58
2023-03-25T19:11:43.448Z,3.80
2023-03-25T19:14:09.900Z,5.43
2023-03-25T19:16:36.374Z,4.13
2023-03-25T19:19:02.885Z,5.65
2023-03-25T19:21:29.369Z,5.80
2023-03-25T19:23:55.835Z,3.75
2023-03-25T19:26:22.551Z,3.63
2023-03-25T19:28:49.000Z,5.38
2023-03-25T19:31:15.630Z,5.75
2023-03-25T19:33:42.237Z,5.43
2023-03-25T19:36:08.699Z,8.82
2023-03-25T19:38:35.144Z,5.30
2023-03-25T19:41:01.591Z,3.95
2023-03-25T19:43:28.087Z,7.20
2023-03-25T19:45:54.612Z,7.10
2023-03-25T19:48:21.073Z,5.95
2023-03-25T19:50:47.715Z,7.10
2023-03-25T19:53:14.172Z,6.38
2023-03-25T19:55:40.646Z,4.85
2023-03-25T19:58:07.080Z,6.97
2023-03-25T20:00:33.478Z,3.60
2023-03-25T20:03:00.065Z,3.47
2023-03-25T20:05:26.588Z,5.63
2023-03-25T20:07:53.006Z,4.63
2023-03-25T20:10:20.531Z,4.80
2023-03-25T20:12:47.108Z,3.60
2023-03-25T20:15:13.557Z,3.55
2023-03-25T20:17:39.985Z,7.00
2023-03-25T20:20:06.406Z,4.93
2023-03-25T20:22:32.869Z,4.38
2023-03-25T20:24:59.308Z,10.05
2023-03-25T20:27:25.698Z,8.52
2023-03-25T20:29:52.114Z,6.03
2023-03-25T20:32:21.496Z,6.55
2023-03-25T20:34:48.186Z,2.47
2023-03-25T20:37:14.658Z,4.20
2023-03-25T20:39:41.140Z,5.93
2023-03-25T20:42:07.541Z,7.63
2023-03-25T20:44:33.920Z,7.03
2023-03-25T20:47:00.315Z,4.68
2023-03-25T20:49:26.799Z,5.40
2023-03-25T20:51:53.187Z,4.30
2023-03-25T20:54:19.715Z,4.13
2023-03-25T20:56:46.179Z,4.32
2023-03-25T20:59:12.609Z,1.42
2023-03-25T21:01:39.604Z,3.40
2023-03-25T21:04:06.088Z,5.00
2023-03-25T21:06:32.700Z,2.53
2023-03-25T21:09:05.095Z,2.95
2023-03-25T21:11:33.614Z,4.10
2023-03-25T21:14:00.021Z,3.13
2023-03-25T21:16:26.505Z,2.05
2023-03-25T21:18:52.954Z,1.95
2023-03-25T21:21:19.845Z,3.65
2023-03-25T21:23:46.545Z,3.00
2023-03-25T21:26:13.033Z,3.92
2023-03-25T21:28:39.437Z,3.67
2023-03-25T21:31:05.861Z,4.15
2023-03-25T21:33:32.256Z,3.95
2023-03-25T21:35:58.685Z,4.05
2023-03-25T21:38:29.357Z,3.97
2023-03-25T21:40:56.015Z,3.63
2023-03-25T21:43:22.502Z,3.40
2023-03-25T21:45:49.059Z,3.20
2023-03-25T21:48:15.602Z,3.78
2023-03-25T21:50:42.051Z,4.13
2023-03-25T21:53:08.511Z,9.43
2023-03-25T21:55:34.953Z,3.03
2023-03-25T21:58:01.353Z,6.03
2023-03-25T22:00:27.750Z,5.63
2023-03-25T22:02:54.198Z,3.92
2023-03-25T22:05:20.633Z,4.15
2023-03-25T22:07:47.023Z,3.90
2023-03-25T22:10:13.416Z,5.55
2023-03-25T22:12:39.883Z,5.80
2023-03-25T22:15:06.351Z,6.20
2023-03-25T22:17:32.788Z,4.60
2023-03-25T22:19:59.249Z,4.85
2023-03-25T22:22:25.640Z,7.55
2023-03-25T22:24:52.026Z,8.52
2023-03-25T22:27:18.396Z,7.95
2023-03-25T22:29:44.788Z,5.50
2023-03-25T22:32:11.237Z,4.38
2023-03-25T22:34:37.668Z,6.90
2023-03-25T22:37:04.089Z,2.85
2023-03-25T22:39:30.557Z,7.05
2023-03-25T22:41:57.004Z,5.07
2023-03-25T22:44:23.426Z,6.07
2023-03-25T22:46:49.885Z,7.75
2023-03-25T22:49:16.343Z,6.72
2023-03-25T22:51:42.766Z,6.90
2023-03-25T22:54:09.191Z,6.95
2023-03-25T22:56:35.610Z,7.18
2023-03-25T22:59:02.080Z,6.30
2023-03-25T23:01:28.522Z,6.55
2023-03-25T23:03:54.980Z,5.72
2023-03-25T23:06:21.437Z,9.20
2023-03-25T23:08:47.815Z,9.68
2023-03-25T23:11:16.372Z,7.80
2023-03-25T23:13:43.358Z,5.38
2023-03-25T23:16:09.918Z,5.97
2023-03-25T23:18:36.417Z,5.90
2023-03-25T23:21:02.821Z,10.18
2023-03-25T23:23:29.250Z,7.65
2023-03-25T23:25:55.733Z,6.90
2023-03-25T23:28:30.061Z,11.68
2023-03-25T23:30:56.485Z,6.53
2023-03-25T23:33:22.899Z,9.38
2023-03-25T23:35:49.400Z,7.80
2023-03-25T23:38:15.846Z,9.85
2023-03-25T23:40:42.237Z,9.73
2023-03-25T23:43:08.662Z,10.30
2023-03-25T23:45:35.098Z,9.82
2023-03-25T23:48:01.572Z,7.82
2023-03-25T23:50:28.025Z,4.70
2023-03-25T23:52:54.534Z,8.20
2023-03-25T23:55:20.974Z,8.27
2023-03-25T23:57:47.412Z,10.25
